Time,TemperatureF,DewpointF,PressureIn,WindDirection,WindDirectionDegrees,WindSpeedMPH,WindSpeedGustMPH,Humidity,HourlyPrecipIn,Conditions,Clouds,dailyrainin,SoftwareType,DateUTC
2013-02-08 00:00:00,31.4,27.4,30.21,ESE,114,3.0,4.0,85,0.00,,---,0.00,VWS V14.01,2013-02-08 05:00:00,
2013-02-08 00:02:00,31.4,27.7,30.21,ESE,108,4.0,4.0,86,0.00,,---,0.00,VWS V14.01,2013-02-08 05:02:00,
2013-02-08 00:07:00,31.3,27.6,30.21,East,86,3.0,3.0,86,0.00,,---,0.00,VWS V14.01,2013-02-08 05:07:00,
2013-02-08 00:12:00,31.3,27.6,30.21,ESE,107,1.0,2.0,86,0.00,,---,0.00,VWS V14.01,2013-02-08 05:12:00,
2013-02-08 00:17:00,31.2,27.5,30.21,East,84,2.0,2.0,86,0.00,,---,0.00,VWS V14.01,2013-02-08 05:17:00,
2013-02-08 00:22:00,31.2,27.5,30.20,East,80,2.0,5.0,86,0.00,,---,0.00,VWS V14.01,2013-02-08 05:22:00,
2013-02-08 00:27:00,31.1,27.4,30.20,ESE,120,4.0,5.0,86,0.00,,---,0.00,VWS V14.01,2013-02-08 05:27:00,
2013-02-08 00:32:00,31.1,27.4,30.19,ESE,117,3.0,4.0,86,0.00,,---,0.00,VWS V14.01,2013-02-08 05:32:00,
2013-02-08 00:37:00,31.0,27.3,30.19,ESE,119,5.0,5.0,86,0.00,,---,0.00,VWS V14.01,2013-02-08 05:37:00,
2013-02-08 00:43:00,31.0,27.3,30.18,ESE,110,2.0,4.0,86,0.00,,---,0.00,VWS V14.01,2013-02-08 05:43:00,
2013-02-08 00:48:00,31.0,27.6,30.18,ESE,105,4.0,5.0,87,0.00,,---,0.00,VWS V14.01,2013-02-08 05:48:00,
2013-02-08 00:53:00,30.9,27.5,30.18,ESE,105,3.0,3.0,87,0.00,,---,0.00,VWS V14.01,2013-02-08 05:53:00,
2013-02-08 00:58:00,30.9,27.5,30.17,East,98,2.0,4.0,87,0.00,,---,0.00,VWS V14.01,2013-02-08 05:58:00,
2013-02-08 01:03:00,30.9,27.5,30.17,East,101,3.0,3.0,87,0.00,,---,0.00,VWS V14.01,2013-02-08 06:03:00,
2013-02-08 01:08:00,30.9,27.5,30.16,ESE,111,2.0,4.0,87,0.00,,---,0.00,VWS V14.01,2013-02-08 06:08:00,
2013-02-08 01:13:00,30.9,27.5,30.16,East,96,3.0,6.0,87,0.00,,---,0.00,VWS V14.01,2013-02-08 06:13:00,
2013-02-08 01:18:00,30.8,27.4,30.16,ESE,114,4.0,6.0,87,0.00,,---,0.00,VWS V14.01,2013-02-08 06:18:00,
2013-02-08 01:23:00,30.8,27.1,30.15,SE,129,3.0,5.0,86,0.00,,---,0.00,VWS V14.01,2013-02-08 06:23:00,
2013-02-08 01:28:00,30.8,27.1,30.15,ESE,115,3.0,3.0,86,0.00,,---,0.00,VWS V14.01,2013-02-08 06:28:00,
2013-02-08 01:33:00,30.7,27.0,30.15,ESE,117,5.0,5.0,86,0.00,,---,0.00,VWS V14.01,2013-02-08 06:33:00,
2013-02-08 01:39:00,30.7,27.0,30.14,ESE,121,4.0,5.0,86,0.00,,---,0.00,VWS V14.01,2013-02-08 06:39:00,
2013-02-08 01:44:00,30.7,27.0,30.14,ESE,110,5.0,5.0,86,0.00,,---,0.00,VWS V14.01,2013-02-08 06:44:00,
2013-02-08 01:49:00,30.6,26.9,30.13,ESE,107,4.0,6.0,86,0.00,,---,0.00,VWS V14.01,2013-02-08 06:49:00,
2013-02-08 01:54:00,30.7,27.0,30.13,ESE,111,3.0,5.0,86,0.00,,---,0.00,VWS V14.01,2013-02-08 06:54:00,
2013-02-08 01:59:00,30.7,27.0,30.13,ESE,116,4.0,5.0,86,0.00,,---,0.00,VWS V14.01,2013-02-08 06:59:00,
2013-02-08 02:04:00,30.7,27.0,30.13,SE,132,4.0,5.0,86,0.00,,---,0.00,VWS V14.01,2013-02-08 07:04:00,
2013-02-08 02:10:00,30.7,26.7,30.13,ESE,110,4.0,4.0,85,0.00,,---,0.00,VWS V14.01,2013-02-08 07:10:00,
2013-02-08 02:15:00,30.7,26.7,30.13,ESE,102,4.0,4.0,85,0.00,,---,0.00,VWS V14.01,2013-02-08 07:15:00,
2013-02-08 02:20:00,30.7,26.7,30.13,SE,129,4.0,4.0,85,0.00,,---,0.00,VWS V14.01,2013-02-08 07:20:00,
2013-02-08 02:25:00,30.7,26.7,30.12,SE,124,3.0,3.0,85,0.00,,---,0.00,VWS V14.01,2013-02-08 07:25:00,
2013-02-08 02:30:00,30.8,26.8,30.13,ESE,105,2.0,3.0,85,0.00,,---,0.00,VWS V14.01,2013-02-08 07:30:00,
2013-02-08 02:35:00,30.8,26.8,30.12,East,98,3.0,3.0,85,0.00,,---,0.00,VWS V14.01,2013-02-08 07:35:00,
2013-02-08 02:40:00,30.8,26.8,30.12,ESE,102,2.0,3.0,85,0.00,,---,0.00,VWS V14.01,2013-02-08 07:40:00,
2013-02-08 02:45:00,30.8,26.8,30.12,SE,124,3.0,3.0,85,0.00,,---,0.00,VWS V14.01,2013-02-08 07:45:00,
2013-02-08 02:51:00,30.8,26.5,30.12,ESE,121,0.0,0.0,84,0.00,,---,0.00,VWS V14.01,2013-02-08 07:51:00,
2013-02-08 02:56:00,30.8,26.5,30.12,ESE,116,1.0,3.0,84,0.00,,---,0.00,VWS V14.01,2013-02-08 07:56:00,
2013-02-08 03:01:00,30.8,26.8,30.11,SE,124,3.0,3.0,85,0.00,,---,0.00,VWS V14.01,2013-02-08 08:01:00,
2013-02-08 03:06:00,30.8,26.8,30.11,ESE,113,1.0,3.0,85,0.00,,---,0.00,VWS V14.01,2013-02-08 08:06:00,
2013-02-08 03:11:00,30.8,26.5,30.11,ESE,103,3.0,3.0,84,0.00,,---,0.00,VWS V14.01,2013-02-08 08:11:00,
2013-02-08 03:16:00,30.8,26.5,30.11,SE,124,2.0,2.0,84,0.00,,---,0.00,VWS V14.01,2013-02-08 08:16:00,
2013-02-08 03:21:00,30.8,26.8,30.10,ESE,113,2.0,3.0,85,0.00,,---,0.00,VWS V14.01,2013-02-08 08:21:00,
2013-02-08 03:27:00,30.8,26.5,30.10,ESE,117,2.0,2.0,84,0.00,,---,0.00,VWS V14.01,2013-02-08 08:27:00,
2013-02-08 03:32:00,30.8,26.5,30.10,ESE,114,2.0,3.0,84,0.00,,---,0.00,VWS V14.01,2013-02-08 08:32:00,
2013-02-08 03:37:00,30.9,26.9,30.09,ESE,112,2.0,2.0,85,0.00,,---,0.00,VWS V14.01,2013-02-08 08:37:00,
2013-02-08 03:42:00,30.8,26.5,30.09,ESE,104,1.0,2.0,84,0.00,,---,0.00,VWS V14.01,2013-02-08 08:42:00,
2013-02-08 03:47:00,30.8,26.8,30.09,ESE,117,1.0,2.0,85,0.00,,---,0.00,VWS V14.01,2013-02-08 08:47:00,
2013-02-08 03:52:00,30.9,26.6,30.09,ENE,72,0.0,2.0,84,0.00,,---,0.00,VWS V14.01,2013-02-08 08:52:00,
2013-02-08 03:57:00,30.9,26.6,30.08,SE,136,1.0,1.0,84,0.00,,---,0.00,VWS V14.01,2013-02-08 08:57:00,
2013-02-08 04:03:00,30.9,26.6,30.08,SSW,203,2.0,2.0,84,0.00,,---,0.00,VWS V14.01,2013-02-08 09:03:00,
2013-02-08 04:08:00,30.9,26.9,30.08,SE,125,1.0,2.0,85,0.00,,---,0.00,VWS V14.01,2013-02-08 09:08:00,
2013-02-08 04:13:00,30.9,26.9,30.08,ESE,111,1.0,2.0,85,0.00,,---,0.00,VWS V14.01,2013-02-08 09:13:00,
2013-02-08 04:18:00,30.8,27.1,30.08,ESE,121,1.0,3.0,86,0.00,,---,0.00,VWS V14.01,2013-02-08 09:18:00,
2013-02-08 04:23:00,30.6,27.2,30.08,SE,127,3.0,3.0,87,0.00,,---,0.00,VWS V14.01,2013-02-08 09:23:00,
2013-02-08 04:28:00,30.5,27.4,30.07,SSE,149,0.0,2.0,88,0.00,,---,0.00,VWS V14.01,2013-02-08 09:28:00,
2013-02-08 04:33:00,30.4,27.5,30.07,ESE,111,1.0,2.0,89,0.00,,---,0.00,VWS V14.01,2013-02-08 09:33:00,
2013-02-08 04:38:00,30.2,27.6,30.07,ESE,105,0.0,1.0,90,0.00,,---,0.00,VWS V14.01,2013-02-08 09:38:00,
2013-02-08 04:43:00,30.0,27.4,30.07,SE,141,1.0,1.0,90,0.00,,---,0.00,VWS V14.01,2013-02-08 09:43:00,
2013-02-08 04:49:00,30.0,27.7,30.07,ESE,118,1.0,1.0,91,0.00,,---,0.00,VWS V14.01,2013-02-08 09:49:00,
2013-02-08 04:54:00,30.0,27.7,30.07,East,100,1.0,1.0,91,0.00,,---,0.00,VWS V14.01,2013-02-08 09:54:00,
2013-02-08 04:59:00,29.9,27.6,30.07,ESE,103,1.0,2.0,91,0.00,,---,0.00,VWS V14.01,2013-02-08 09:59:00,
2013-02-08 05:04:00,30.0,27.7,30.07,ESE,110,3.0,3.0,91,0.00,,---,0.00,VWS V14.01,2013-02-08 10:04:00,
2013-02-08 05:09:00,29.9,27.9,30.06,SE,136,2.0,4.0,92,0.00,,---,0.00,VWS V14.01,2013-02-08 10:09:00,
2013-02-08 05:14:00,30.0,28.0,30.06,SE,125,2.0,2.0,92,0.00,,---,0.00,VWS V14.01,2013-02-08 10:14:00,
2013-02-08 05:19:00,30.1,28.1,30.06,East,97,1.0,1.0,92,0.00,,---,0.00,VWS V14.01,2013-02-08 10:19:00,
2013-02-08 05:24:00,30.1,28.1,30.05,ESE,113,4.0,4.0,92,0.00,,---,0.00,VWS V14.01,2013-02-08 10:24:00,
2013-02-08 05:29:00,30.1,28.3,30.05,ESE,117,2.0,2.0,93,0.00,,---,0.00,VWS V14.01,2013-02-08 10:29:00,
2013-02-08 05:34:00,30.1,28.3,30.05,ENE,69,2.0,4.0,93,0.00,,---,0.00,VWS V14.01,2013-02-08 10:34:00,
2013-02-08 05:39:00,30.3,28.5,30.05,ESE,103,2.0,3.0,93,0.00,,---,0.00,VWS V14.01,2013-02-08 10:39:00,
2013-02-08 05:45:00,30.5,28.7,30.05,ESE,113,0.0,0.0,93,0.00,,---,0.00,VWS V14.01,2013-02-08 10:45:00,
2013-02-08 05:50:00,30.6,28.8,30.04,ESE,110,0.0,0.0,93,0.00,,---,0.00,VWS V14.01,2013-02-08 10:50:00,
2013-02-08 05:55:00,30.6,28.8,30.04,East,92,0.0,0.0,93,0.00,,---,0.00,VWS V14.01,2013-02-08 10:55:00,
2013-02-08 06:00:00,30.6,28.8,30.04,East,94,0.0,0.0,93,0.00,,---,0.00,VWS V14.01,2013-02-08 11:00:00,
2013-02-08 06:05:00,30.6,28.8,30.04,South,174,0.0,0.0,93,0.00,,---,0.00,VWS V14.01,2013-02-08 11:05:00,
2013-02-08 06:10:00,30.8,29.3,30.04,SE,146,0.0,0.0,94,0.00,,---,0.00,VWS V14.01,2013-02-08 11:10:00,
2013-02-08 06:15:00,30.8,29.3,30.04,SE,145,0.0,1.0,94,0.00,,---,0.00,VWS V14.01,2013-02-08 11:15:00,
2013-02-08 06:20:00,31.0,29.5,30.04,SE,145,0.0,0.0,94,0.00,,---,0.00,VWS V14.01,2013-02-08 11:20:00,
2013-02-08 06:25:00,31.1,29.6,30.04,West,260,0.0,0.0,94,0.00,,---,0.00,VWS V14.01,2013-02-08 11:25:00,
2013-02-08 06:30:00,31.2,29.7,30.04,West,260,0.0,0.0,94,0.00,,---,0.00,VWS V14.01,2013-02-08 11:30:00,
2013-02-08 06:35:00,31.3,29.8,30.03,West,260,0.0,0.0,94,0.00,,---,0.00,VWS V14.01,2013-02-08 11:35:00,
2013-02-08 06:40:00,31.3,29.8,30.03,West,260,0.0,0.0,94,0.00,,---,0.00,VWS V14.01,2013-02-08 11:40:00,
2013-02-08 06:45:00,31.3,29.8,30.03,West,260,0.0,0.0,94,0.00,,---,0.00,VWS V14.01,2013-02-08 11:45:00,
2013-02-08 06:51:00,31.3,29.8,30.02,West,260,0.0,0.0,94,0.00,,---,0.00,VWS V14.01,2013-02-08 11:51:00,
2013-02-08 06:56:00,31.3,29.8,30.02,NE,53,0.0,0.0,94,0.00,,---,0.00,VWS V14.01,2013-02-08 11:56:00,
2013-02-08 07:01:00,31.2,29.7,30.01,NE,50,0.0,0.0,94,0.00,,---,0.00,VWS V14.01,2013-02-08 12:01:00,
2013-02-08 07:06:00,31.0,29.5,30.01,NE,51,0.0,0.0,94,0.00,,---,0.00,VWS V14.01,2013-02-08 12:06:00,
2013-02-08 07:11:00,30.9,29.4,30.01,NE,50,0.0,0.0,94,0.00,,---,0.00,VWS V14.01,2013-02-08 12:11:00,
2013-02-08 07:16:00,30.8,29.3,30.01,NE,51,0.0,0.0,94,0.00,,---,0.00,VWS V14.01,2013-02-08 12:16:00,
2013-02-08 07:22:00,30.7,29.2,30.00,NE,51,0.0,0.0,94,0.00,,---,0.00,VWS V14.01,2013-02-08 12:22:00,
2013-02-08 07:27:00,30.6,29.1,30.00,NE,51,0.0,0.0,94,0.00,,---,0.00,VWS V14.01,2013-02-08 12:27:00,
2013-02-08 07:32:00,30.6,29.1,30.00,NE,51,0.0,0.0,94,0.00,,---,0.00,VWS V14.01,2013-02-08 12:32:00,
2013-02-08 07:37:00,30.6,29.3,30.00,WNW,287,0.0,0.0,95,0.00,,---,0.00,VWS V14.01,2013-02-08 12:37:00,
2013-02-08 07:42:00,30.7,29.4,30.00,WNW,287,0.0,0.0,95,0.00,,---,0.00,VWS V14.01,2013-02-08 12:42:00,
2013-02-08 07:47:00,30.9,29.6,30.00,WNW,288,0.0,0.0,95,0.00,,---,0.00,VWS V14.01,2013-02-08 12:47:00,
2013-02-08 07:52:00,31.0,29.7,29.99,WNW,288,0.0,0.0,95,0.00,,---,0.00,VWS V14.01,2013-02-08 12:52:00,
2013-02-08 07:57:00,31.1,29.8,30.00,WNW,288,0.0,1.0,95,0.00,,---,0.00,VWS V14.01,2013-02-08 12:57:00,
2013-02-08 08:02:00,31.0,29.7,29.99,WNW,288,0.0,1.0,95,0.00,,---,0.00,VWS V14.01,2013-02-08 13:02:00,
2013-02-08 08:07:00,31.0,29.7,29.99,WNW,288,0.0,0.0,95,0.00,,---,0.00,VWS V14.01,2013-02-08 13:07:00,
2013-02-08 08:12:00,31.0,29.7,29.99,WNW,295,1.0,1.0,95,0.00,,---,0.00,VWS V14.01,2013-02-08 13:12:00,
2013-02-08 08:17:00,31.1,29.6,29.99,WNW,288,0.0,1.0,94,0.00,,---,0.00,VWS V14.01,2013-02-08 13:17:00,
2013-02-08 08:22:00,31.1,29.6,29.99,WNW,293,0.0,0.0,94,0.00,,---,0.00,VWS V14.01,2013-02-08 13:22:00,
2013-02-08 08:27:00,31.1,29.6,29.99,WNW,283,0.0,0.0,94,0.00,,---,0.00,VWS V14.01,2013-02-08 13:27:00,
2013-02-08 08:32:00,31.2,29.7,29.99,West,267,0.0,1.0,94,0.00,,---,0.00,VWS V14.01,2013-02-08 13:32:00,
2013-02-08 08:37:00,31.3,29.8,29.99,SW,226,0.0,0.0,94,0.00,,---,0.00,VWS V14.01,2013-02-08 13:37:00,
2013-02-08 08:42:00,31.4,29.9,29.98,SW,226,0.0,0.0,94,0.00,,---,0.00,VWS V14.01,2013-02-08 13:42:00,
2013-02-08 08:47:00,31.3,29.5,29.98,WNW,297,0.0,1.0,93,0.00,,---,0.00,VWS V14.01,2013-02-08 13:47:00,
2013-02-08 08:52:00,31.3,29.5,29.97,WNW,297,0.0,0.0,93,0.00,,---,0.00,VWS V14.01,2013-02-08 13:52:00,
2013-02-08 08:58:00,31.4,29.6,29.97,WNW,296,0.0,0.0,93,0.00,,---,0.00,VWS V14.01,2013-02-08 13:58:00,
2013-02-08 09:03:00,31.4,29.6,29.97,WNW,297,0.0,0.0,93,0.00,,---,0.00,VWS V14.01,2013-02-08 14:03:00,
2013-02-08 09:08:00,31.3,29.5,29.96,WNW,297,0.0,0.0,93,0.00,,---,0.00,VWS V14.01,2013-02-08 14:08:00,
2013-02-08 09:13:00,31.3,29.5,29.96,WNW,284,0.0,1.0,93,0.00,,---,0.00,VWS V14.01,2013-02-08 14:13:00,
2013-02-08 09:18:00,31.3,29.5,29.96,WNW,285,0.0,0.0,93,0.00,,---,0.00,VWS V14.01,2013-02-08 14:18:00,
2013-02-08 09:23:00,31.3,29.5,29.95,WNW,285,0.0,1.0,93,0.00,,---,0.00,VWS V14.01,2013-02-08 14:23:00,
2013-02-08 09:28:00,31.3,29.2,29.95,West,274,0.0,1.0,92,0.00,,---,0.00,VWS V14.01,2013-02-08 14:28:00,
2013-02-08 09:33:00,31.3,29.2,29.94,WNW,288,0.0,1.0,92,0.00,,---,0.00,VWS V14.01,2013-02-08 14:33:00,
2013-02-08 09:38:00,31.4,29.4,29.94,WNW,287,0.0,0.0,92,0.00,,---,0.00,VWS V14.01,2013-02-08 14:38:00,
2013-02-08 09:43:00,31.6,29.5,29.94,WNW,287,0.0,0.0,92,0.00,,---,0.00,VWS V14.01,2013-02-08 14:43:00,
2013-02-08 09:48:00,31.9,29.8,29.94,WNW,289,0.0,0.0,92,0.00,,---,0.00,VWS V14.01,2013-02-08 14:48:00,
2013-02-08 09:53:00,32.1,30.0,29.94,WNW,293,0.0,1.0,92,0.00,,---,0.00,VWS V14.01,2013-02-08 14:53:00,
2013-02-08 09:58:00,32.1,29.8,29.93,WNW,295,0.0,0.0,91,0.00,,---,0.00,VWS V14.01,2013-02-08 14:58:00,
2013-02-08 10:03:00,32.3,30.2,29.93,NNW,348,1.0,1.0,92,0.00,,---,0.00,VWS V14.01,2013-02-08 15:03:00,
2013-02-08 10:09:00,32.5,30.4,29.93,North,354,0.0,0.0,92,0.00,,---,0.00,VWS V14.01,2013-02-08 15:09:00,
2013-02-08 10:14:00,32.6,30.3,29.93,NNW,333,1.0,1.0,91,0.00,,---,0.00,VWS V14.01,2013-02-08 15:14:00,
2013-02-08 10:19:00,32.6,30.3,29.93,NNW,333,0.0,0.0,91,0.00,,---,0.00,VWS V14.01,2013-02-08 15:19:00,
2013-02-08 10:24:00,32.6,30.3,29.93,NNW,333,0.0,1.0,91,0.00,,---,0.00,VWS V14.01,2013-02-08 15:24:00,
2013-02-08 10:29:00,32.7,30.4,29.93,NNW,335,0.0,1.0,91,0.00,,---,0.00,VWS V14.01,2013-02-08 15:29:00,
2013-02-08 10:34:00,32.8,30.5,29.92,NNW,329,1.0,1.0,91,0.00,,---,0.00,VWS V14.01,2013-02-08 15:34:00,
2013-02-08 10:39:00,32.9,30.6,29.92,North,5,0.0,1.0,91,0.00,,---,0.00,VWS V14.01,2013-02-08 15:39:00,
2013-02-08 10:44:00,33.0,30.7,29.92,NNW,335,1.0,1.0,91,0.00,,---,0.00,VWS V14.01,2013-02-08 15:44:00,
2013-02-08 10:49:00,33.2,30.9,29.91,NNW,335,0.0,0.0,91,0.00,,---,0.00,VWS V14.01,2013-02-08 15:49:00,
2013-02-08 10:54:00,33.2,30.6,29.91,West,277,0.0,0.0,90,0.00,,---,0.00,VWS V14.01,2013-02-08 15:54:00,
2013-02-08 10:59:00,33.1,30.5,29.90,NNW,342,1.0,1.0,90,0.00,,---,0.00,VWS V14.01,2013-02-08 15:59:00,
2013-02-08 11:04:00,33.1,30.8,29.90,WNW,293,0.0,1.0,91,0.00,,---,0.00,VWS V14.01,2013-02-08 16:04:00,
2013-02-08 11:09:00,33.1,30.8,29.90,North,7,0.0,1.0,91,0.00,,---,0.00,VWS V14.01,2013-02-08 16:09:00,
2013-02-08 11:15:00,33.3,31.2,29.89,West,268,0.0,2.0,92,0.00,,---,0.00,VWS V14.01,2013-02-08 16:15:00,
2013-02-08 11:20:00,33.3,31.5,29.89,NNW,339,0.0,0.0,93,0.00,,---,0.00,VWS V14.01,2013-02-08 16:20:00,
2013-02-08 11:25:00,33.5,31.7,29.89,NNW,339,0.0,1.0,93,0.00,,---,0.00,VWS V14.01,2013-02-08 16:25:00,
2013-02-08 11:30:00,33.5,31.4,29.89,NNW,347,0.0,1.0,92,0.00,,---,0.00,VWS V14.01,2013-02-08 16:30:00,
2013-02-08 11:35:00,33.5,31.7,29.89,NNE,23,0.0,1.0,93,0.00,,---,0.00,VWS V14.01,2013-02-08 16:35:00,
2013-02-08 11:40:00,33.4,31.3,29.88,North,352,0.0,1.0,92,0.00,,---,0.00,VWS V14.01,2013-02-08 16:40:00,
2013-02-08 11:45:00,33.3,31.5,29.88,North,351,0.0,1.0,93,0.00,,---,0.00,VWS V14.01,2013-02-08 16:45:00,
2013-02-08 11:50:00,33.4,31.6,29.88,North,352,0.0,1.0,93,0.00,,---,0.00,VWS V14.01,2013-02-08 16:50:00,
2013-02-08 11:55:00,33.3,31.5,29.87,NNW,331,0.0,1.0,93,0.00,,---,0.00,VWS V14.01,2013-02-08 16:55:00,
2013-02-08 12:01:00,33.2,31.4,29.87,NNW,332,0.0,0.0,93,0.00,,---,0.00,VWS V14.01,2013-02-08 17:01:00,
2013-02-08 12:06:00,33.2,31.4,29.87,WSW,249,1.0,1.0,93,0.00,,---,0.00,VWS V14.01,2013-02-08 17:06:00,
2013-02-08 12:11:00,33.1,31.3,29.86,NNW,338,0.0,0.0,93,0.00,,---,0.00,VWS V14.01,2013-02-08 17:11:00,
2013-02-08 12:16:00,33.0,31.5,29.85,North,5,0.0,1.0,94,0.00,,---,0.00,VWS V14.01,2013-02-08 17:16:00,
2013-02-08 12:21:00,33.0,31.5,29.85,NNE,27,0.0,0.0,94,0.00,,---,0.00,VWS V14.01,2013-02-08 17:21:00,
2013-02-08 12:26:00,33.3,31.8,29.84,NE,44,0.0,0.0,94,0.00,,---,0.00,VWS V14.01,2013-02-08 17:26:00,
2013-02-08 12:31:00,33.6,32.3,29.83,ENE,57,0.0,1.0,95,0.00,,---,0.00,VWS V14.01,2013-02-08 17:31:00,
2013-02-08 12:36:00,33.8,32.5,29.82,ENE,74,0.0,0.0,95,0.00,,---,0.00,VWS V14.01,2013-02-08 17:36:00,
2013-02-08 12:41:00,33.8,32.3,29.83,West,270,0.0,2.0,94,0.00,,---,0.00,VWS V14.01,2013-02-08 17:41:00,
2013-02-08 12:46:00,33.9,32.4,29.82,WNW,301,2.0,2.0,94,0.00,,---,0.00,VWS V14.01,2013-02-08 17:46:00,
2013-02-08 12:51:00,33.9,32.4,29.83,WSW,249,1.0,2.0,94,0.00,,---,0.00,VWS V14.01,2013-02-08 17:51:00,
2013-02-08 12:56:00,34.0,32.5,29.84,WNW,283,3.0,4.0,94,0.00,,---,0.00,VWS V14.01,2013-02-08 17:56:00,
2013-02-08 13:01:00,34.0,32.5,29.84,NNW,340,2.0,4.0,94,0.00,,---,0.00,VWS V14.01,2013-02-08 18:01:00,
2013-02-08 13:07:00,33.8,32.0,29.84,WNW,288,4.0,4.0,93,0.00,,---,0.00,VWS V14.01,2013-02-08 18:07:00,
2013-02-08 13:12:00,33.7,31.9,29.84,NNE,32,1.0,2.0,93,0.00,,---,0.00,VWS V14.01,2013-02-08 18:12:00,
2013-02-08 13:17:00,33.5,31.7,29.84,NNW,335,0.0,1.0,93,0.00,,---,0.00,VWS V14.01,2013-02-08 18:17:00,
2013-02-08 13:22:00,33.4,31.6,29.84,North,1,0.0,2.0,93,0.00,,---,0.00,VWS V14.01,2013-02-08 18:22:00,
2013-02-08 13:27:00,33.3,31.5,29.83,North,359,0.0,0.0,93,0.00,,---,0.00,VWS V14.01,2013-02-08 18:27:00,
2013-02-08 13:32:00,33.5,31.7,29.83,NW,316,0.0,0.0,93,0.00,,---,0.00,VWS V14.01,2013-02-08 18:32:00,
2013-02-08 13:38:00,33.6,31.8,29.82,NW,318,0.0,1.0,93,0.00,,---,0.00,VWS V14.01,2013-02-08 18:38:00,
2013-02-08 13:43:00,33.6,31.8,29.82,NNE,24,0.0,0.0,93,0.00,,---,0.00,VWS V14.01,2013-02-08 18:43:00,
2013-02-08 13:48:00,33.7,32.2,29.83,NW,323,0.0,1.0,94,0.00,,---,0.00,VWS V14.01,2013-02-08 18:48:00,
2013-02-08 13:53:00,33.7,32.2,29.83,NNW,347,0.0,1.0,94,0.00,,---,0.00,VWS V14.01,2013-02-08 18:53:00,
2013-02-08 13:59:00,33.5,31.7,29.83,NW,310,0.0,0.0,93,0.00,,---,0.00,VWS V14.01,2013-02-08 18:59:00,
2013-02-08 14:04:00,33.5,32.0,29.82,NW,319,0.0,0.0,94,0.00,,---,0.00,VWS V14.01,2013-02-08 19:04:00,
2013-02-08 14:09:00,33.4,31.9,29.81,NW,319,0.0,0.0,94,0.00,,---,0.00,VWS V14.01,2013-02-08 19:09:00,
2013-02-08 14:14:00,33.3,31.8,29.81,NNE,18,0.0,0.0,94,0.00,,---,0.00,VWS V14.01,2013-02-08 19:14:00,
2013-02-08 14:19:00,33.2,31.7,29.81,WNW,291,0.0,0.0,94,0.00,,---,0.00,VWS V14.01,2013-02-08 19:19:00,
2013-02-08 14:24:00,33.1,31.6,29.81,NNW,335,0.0,0.0,94,0.00,,---,0.00,VWS V14.01,2013-02-08 19:24:00,
2013-02-08 14:29:00,33.0,31.5,29.80,North,350,1.0,1.0,94,0.00,,---,0.00,VWS V14.01,2013-02-08 19:29:00,
2013-02-08 14:34:00,33.0,31.5,29.80,NW,312,0.0,0.0,94,0.00,,---,0.00,VWS V14.01,2013-02-08 19:34:00,
2013-02-08 14:39:00,32.9,31.4,29.81,NW,319,0.0,1.0,94,0.00,,---,0.00,VWS V14.01,2013-02-08 19:39:00,
2013-02-08 14:44:00,33.0,31.7,29.81,NW,319,0.0,0.0,95,0.00,,---,0.00,VWS V14.01,2013-02-08 19:44:00,
2013-02-08 14:49:00,33.1,31.8,29.80,NW,315,0.0,0.0,95,0.00,,---,0.00,VWS V14.01,2013-02-08 19:49:00,
2013-02-08 14:54:00,33.2,31.9,29.81,NW,306,0.0,0.0,95,0.00,,---,0.00,VWS V14.01,2013-02-08 19:54:00,
2013-02-08 14:59:00,33.3,32.0,29.81,NW,319,0.0,0.0,95,0.00,,---,0.00,VWS V14.01,2013-02-08 19:59:00,
2013-02-08 15:04:00,33.4,32.1,29.81,WNW,297,0.0,0.0,95,0.00,,---,0.00,VWS V14.01,2013-02-08 20:04:00,
2013-02-08 15:09:00,33.4,32.1,29.81,NW,304,0.0,0.0,95,0.00,,---,0.00,VWS V14.01,2013-02-08 20:09:00,
2013-02-08 15:14:00,33.4,32.1,29.80,NNW,336,0.0,1.0,95,0.00,,---,0.00,VWS V14.01,2013-02-08 20:14:00,
2013-02-08 15:19:00,33.4,32.1,29.80,North,8,0.0,1.0,95,0.00,,---,0.00,VWS V14.01,2013-02-08 20:19:00,
2013-02-08 15:24:00,33.4,32.1,29.80,NNE,25,0.0,0.0,95,0.00,,---,0.00,VWS V14.01,2013-02-08 20:24:00,
2013-02-08 15:29:00,33.6,32.3,29.80,NNW,340,0.0,1.0,95,0.00,,---,0.00,VWS V14.01,2013-02-08 20:29:00,
2013-02-08 15:34:00,33.6,32.3,29.80,North,350,0.0,1.0,95,0.00,,---,0.00,VWS V14.01,2013-02-08 20:34:00,
2013-02-08 15:39:00,33.6,32.3,29.80,North,350,0.0,0.0,95,0.00,,---,0.00,VWS V14.01,2013-02-08 20:39:00,
2013-02-08 15:44:00,33.6,32.3,29.80,NNW,345,0.0,0.0,95,0.00,,---,0.00,VWS V14.01,2013-02-08 20:44:00,
2013-02-08 15:49:00,33.7,32.4,29.80,NNW,346,0.0,0.0,95,0.00,,---,0.00,VWS V14.01,2013-02-08 20:49:00,
2013-02-08 15:55:00,33.7,32.4,29.80,North,350,0.0,1.0,95,0.00,,---,0.00,VWS V14.01,2013-02-08 20:55:00,
2013-02-08 16:00:00,33.8,32.5,29.80,NNW,347,0.0,0.0,95,0.00,,---,0.00,VWS V14.01,2013-02-08 21:00:00,
2013-02-08 16:05:00,33.9,32.6,29.80,North,360,0.0,0.0,95,0.00,,---,0.00,VWS V14.01,2013-02-08 21:05:00,
2013-02-08 16:10:00,33.9,32.6,29.80,NNW,340,0.0,0.0,95,0.00,,---,0.00,VWS V14.01,2013-02-08 21:10:00,
2013-02-08 16:15:00,33.8,32.5,29.81,NW,325,0.0,0.0,95,0.00,,---,0.00,VWS V14.01,2013-02-08 21:15:00,
2013-02-08 16:20:00,33.7,32.4,29.81,NW,307,0.0,0.0,95,0.00,,---,0.00,VWS V14.01,2013-02-08 21:20:00,
2013-02-08 16:25:00,33.5,32.2,29.81,WNW,299,0.0,3.0,95,0.00,,---,0.00,VWS V14.01,2013-02-08 21:25:00,
2013-02-08 16:31:00,33.4,32.1,29.81,East,98,0.0,0.0,95,0.00,,---,0.00,VWS V14.01,2013-02-08 21:31:00,
2013-02-08 16:36:00,33.2,31.9,29.81,East,98,0.0,0.0,95,0.00,,---,0.00,VWS V14.01,2013-02-08 21:36:00,
2013-02-08 16:41:00,33.2,31.9,29.80,South,188,0.0,0.0,95,0.00,,---,0.00,VWS V14.01,2013-02-08 21:41:00,
2013-02-08 16:46:00,33.2,32.2,29.81,North,350,0.0,0.0,96,0.00,,---,0.00,VWS V14.01,2013-02-08 21:46:00,
2013-02-08 16:51:00,33.3,32.3,29.81,NE,43,0.0,1.0,96,0.00,,---,0.00,VWS V14.01,2013-02-08 21:51:00,
2013-02-08 16:56:00,33.3,32.3,29.81,NNW,339,1.0,1.0,96,0.00,,---,0.00,VWS V14.01,2013-02-08 21:56:00,
2013-02-08 17:01:00,33.3,32.3,29.81,North,5,0.0,0.0,96,0.00,,---,0.00,VWS V14.01,2013-02-08 22:01:00,
2013-02-08 17:06:00,33.4,32.4,29.81,WNW,297,1.0,4.0,96,0.00,,---,0.00,VWS V14.01,2013-02-08 22:06:00,
2013-02-08 17:11:00,33.4,32.4,29.81,WNW,285,0.0,0.0,96,0.00,,---,0.00,VWS V14.01,2013-02-08 22:11:00,
2013-02-08 17:16:00,33.4,32.4,29.81,NE,40,0.0,1.0,96,0.00,,---,0.00,VWS V14.01,2013-02-08 22:16:00,
2013-02-08 17:21:00,33.5,32.5,29.81,North,350,0.0,0.0,96,0.00,,---,0.00,VWS V14.01,2013-02-08 22:21:00,
2013-02-08 17:26:00,33.5,32.5,29.81,NNW,340,4.0,4.0,96,0.00,,---,0.00,VWS V14.01,2013-02-08 22:26:00,
2013-02-08 17:31:00,33.7,32.7,29.81,ENE,57,0.0,2.0,96,0.00,,---,0.00,VWS V14.01,2013-02-08 22:31:00,
2013-02-08 17:36:00,33.8,32.8,29.81,NW,325,2.0,2.0,96,0.00,,---,0.00,VWS V14.01,2013-02-08 22:36:00,
2013-02-08 17:42:00,33.9,32.9,29.81,NNW,339,0.0,0.0,96,0.00,,---,0.00,VWS V14.01,2013-02-08 22:42:00,
2013-02-08 17:47:00,34.0,33.0,29.81,East,89,1.0,2.0,96,0.00,,---,0.00,VWS V14.01,2013-02-08 22:47:00,
2013-02-08 17:52:00,34.0,33.0,29.82,NNW,329,0.0,0.0,96,0.00,,---,0.00,VWS V14.01,2013-02-08 22:52:00,
2013-02-08 17:57:00,34.1,33.1,29.81,NNE,27,0.0,1.0,96,0.00,,---,0.00,VWS V14.01,2013-02-08 22:57:00,
2013-02-08 18:02:00,34.2,33.2,29.81,NW,314,0.0,3.0,96,0.00,,---,0.00,VWS V14.01,2013-02-08 23:02:00,
2013-02-08 18:07:00,34.4,33.4,29.81,NNE,20,1.0,3.0,96,0.00,,---,0.00,VWS V14.01,2013-02-08 23:07:00,
2013-02-08 18:12:00,34.7,33.7,29.81,NNE,22,1.0,2.0,96,0.00,,---,0.00,VWS V14.01,2013-02-08 23:12:00,
2013-02-08 18:17:00,34.8,33.5,29.81,NE,34,1.0,3.0,95,0.00,,---,0.00,VWS V14.01,2013-02-08 23:17:00,
2013-02-08 18:22:00,35.1,33.3,29.81,NNW,335,1.0,7.0,93,0.00,,---,0.00,VWS V14.01,2013-02-08 23:22:00,
2013-02-08 18:27:00,35.5,32.9,29.81,NNE,26,2.0,3.0,90,0.00,,---,0.00,VWS V14.01,2013-02-08 23:27:00,
2013-02-08 18:32:00,35.7,32.2,29.82,North,356,0.0,2.0,87,0.00,,---,0.00,VWS V14.01,2013-02-08 23:32:00,
2013-02-08 18:37:00,35.8,32.0,29.82,NE,41,3.0,5.0,86,0.00,,---,0.00,VWS V14.01,2013-02-08 23:37:00,
2013-02-08 18:42:00,35.9,31.5,29.82,North,359,1.0,2.0,84,0.00,,---,0.00,VWS V14.01,2013-02-08 23:42:00,
2013-02-08 18:48:00,36.0,31.0,29.83,North,6,4.0,4.0,82,0.00,,---,0.00,VWS V14.01,2013-02-08 23:48:00,
2013-02-08 18:53:00,36.0,30.8,29.84,NNE,32,0.0,2.0,81,0.00,,---,0.00,VWS V14.01,2013-02-08 23:53:00,
2013-02-08 18:58:00,35.7,31.0,29.84,ENE,57,1.0,3.0,83,0.00,,---,0.00,VWS V14.01,2013-02-08 23:58:00,
2013-02-08 19:03:00,35.6,30.7,29.84,SW,218,0.0,1.0,82,0.00,,---,0.00,VWS V14.01,2013-02-09 00:03:00,
2013-02-08 19:08:00,35.5,30.0,29.84,WNW,297,0.0,3.0,80,0.00,,---,0.00,VWS V14.01,2013-02-09 00:08:00,
2013-02-08 19:13:00,35.3,29.5,29.84,NNE,32,1.0,3.0,79,0.00,,---,0.00,VWS V14.01,2013-02-09 00:13:00,
2013-02-08 19:18:00,35.2,29.7,29.84,SSE,165,0.0,3.0,80,0.00,,---,0.00,VWS V14.01,2013-02-09 00:18:00,
2013-02-08 19:23:00,34.9,29.1,29.84,NNE,32,2.0,2.0,79,0.00,,---,0.00,VWS V14.01,2013-02-09 00:23:00,
2013-02-08 19:29:00,34.8,28.6,29.84,North,359,3.0,3.0,78,0.00,,---,0.00,VWS V14.01,2013-02-09 00:29:00,
2013-02-08 19:34:00,34.8,28.3,29.85,NW,326,2.0,2.0,77,0.00,,---,0.00,VWS V14.01,2013-02-09 00:34:00,
2013-02-08 19:39:00,34.6,28.8,29.85,West,264,1.0,5.0,79,0.00,,---,0.00,VWS V14.01,2013-02-09 00:39:00,
2013-02-08 19:44:00,34.5,27.7,29.85,WNW,297,1.0,2.0,76,0.00,,---,0.00,VWS V14.01,2013-02-09 00:44:00,
2013-02-08 19:49:00,34.4,28.0,29.86,WNW,290,1.0,1.0,77,0.00,,---,0.00,VWS V14.01,2013-02-09 00:49:00,
2013-02-08 19:54:00,34.3,27.9,29.86,NNE,28,2.0,2.0,77,0.00,,---,0.00,VWS V14.01,2013-02-09 00:54:00,
2013-02-08 19:59:00,34.1,27.7,29.86,North,9,2.0,3.0,77,0.00,,---,0.00,VWS V14.01,2013-02-09 00:59:00,
2013-02-08 20:04:00,34.0,27.2,29.86,NNE,17,2.0,5.0,76,0.00,,---,0.00,VWS V14.01,2013-02-09 01:04:00,
2013-02-08 20:09:00,33.9,27.5,29.87,SW,225,0.0,6.0,77,0.00,,---,0.00,VWS V14.01,2013-02-09 01:09:00,
2013-02-08 20:14:00,33.7,27.6,29.87,ENE,60,0.0,3.0,78,0.00,,---,0.00,VWS V14.01,2013-02-09 01:14:00,
2013-02-08 20:19:00,33.4,26.7,29.87,NNW,335,4.0,5.0,76,0.00,,---,0.00,VWS V14.01,2013-02-09 01:19:00,
2013-02-08 20:24:00,33.2,26.8,29.88,WNW,294,0.0,2.0,77,0.00,,---,0.00,VWS V14.01,2013-02-09 01:24:00,
2013-02-08 20:29:00,33.0,26.3,29.88,WNW,295,0.0,1.0,76,0.00,,---,0.00,VWS V14.01,2013-02-09 01:29:00,
2013-02-08 20:35:00,32.7,26.0,29.88,ESE,123,0.0,4.0,76,0.00,,---,0.00,VWS V14.01,2013-02-09 01:35:00,
2013-02-08 20:40:00,32.5,25.5,29.87,NNW,346,4.0,10.0,75,0.00,,---,0.00,VWS V14.01,2013-02-09 01:40:00,
2013-02-08 20:45:00,32.4,25.7,29.89,North,1,1.0,3.0,76,0.00,,---,0.00,VWS V14.01,2013-02-09 01:45:00,
2013-02-08 20:50:00,32.3,25.0,29.89,WNW,288,0.0,1.0,74,0.00,,---,0.00,VWS V14.01,2013-02-09 01:50:00,
2013-02-08 20:55:00,32.2,25.5,29.89,WNW,297,0.0,1.0,76,0.00,,---,0.00,VWS V14.01,2013-02-09 01:55:00,
2013-02-08 21:00:00,32.1,25.4,29.90,SW,225,0.0,1.0,76,0.00,,---,0.00,VWS V14.01,2013-02-09 02:00:00,
2013-02-08 21:05:00,32.0,24.7,29.90,NW,326,2.0,3.0,74,0.00,,---,0.00,VWS V14.01,2013-02-09 02:05:00,
2013-02-08 21:10:00,31.8,25.1,29.90,NNE,18,7.0,8.0,76,0.00,,---,0.00,VWS V14.01,2013-02-09 02:10:00,
2013-02-08 21:16:00,31.7,24.7,29.90,NW,311,0.0,3.0,75,0.00,,---,0.00,VWS V14.01,2013-02-09 02:16:00,
2013-02-08 21:21:00,31.6,24.6,29.90,NE,49,1.0,3.0,75,0.00,,---,0.00,VWS V14.01,2013-02-09 02:21:00,
2013-02-08 21:26:00,31.5,24.5,29.91,NNE,18,3.0,4.0,75,0.00,,---,0.00,VWS V14.01,2013-02-09 02:26:00,
2013-02-08 21:31:00,31.4,24.4,29.91,NW,322,4.0,5.0,75,0.00,,---,0.00,VWS V14.01,2013-02-09 02:31:00,
2013-02-08 21:36:00,31.4,24.4,29.91,NNW,340,2.0,2.0,75,0.00,,---,0.00,VWS V14.01,2013-02-09 02:36:00,
2013-02-08 21:41:00,31.4,24.4,29.92,NNW,340,0.0,5.0,75,0.00,,---,0.00,VWS V14.01,2013-02-09 02:41:00,
2013-02-08 21:46:00,31.3,24.3,29.92,NNW,338,4.0,7.0,75,0.00,,---,0.00,VWS V14.01,2013-02-09 02:46:00,
2013-02-08 21:51:00,31.2,23.9,29.91,North,360,1.0,4.0,74,0.00,,---,0.00,VWS V14.01,2013-02-09 02:51:00,
2013-02-08 21:56:00,31.1,24.4,29.91,NE,53,3.0,3.0,76,0.00,,---,0.00,VWS V14.01,2013-02-09 02:56:00,
2013-02-08 22:01:00,31.0,24.3,29.91,NW,319,2.0,4.0,76,0.00,,---,0.00,VWS V14.01,2013-02-09 03:01:00,
2013-02-08 22:06:00,30.9,23.9,29.91,WNW,290,2.0,4.0,75,0.00,,---,0.00,VWS V14.01,2013-02-09 03:06:00,
2013-02-08 22:11:00,30.8,24.1,29.92,SW,233,1.0,4.0,76,0.00,,---,0.00,VWS V14.01,2013-02-09 03:11:00,
2013-02-08 22:17:00,30.7,23.7,29.92,NE,46,3.0,5.0,75,0.00,,---,0.00,VWS V14.01,2013-02-09 03:17:00,
2013-02-08 22:22:00,30.5,23.9,29.92,NNE,30,6.0,6.0,76,0.00,,---,0.00,VWS V14.01,2013-02-09 03:22:00,
2013-02-08 22:27:00,30.4,23.1,29.92,North,350,1.0,5.0,74,0.00,,---,0.00,VWS V14.01,2013-02-09 03:27:00,
2013-02-08 22:32:00,30.3,22.7,29.93,NE,37,6.0,6.0,73,0.00,,---,0.00,VWS V14.01,2013-02-09 03:32:00,
2013-02-08 22:37:00,30.3,22.7,29.93,NNE,24,4.0,5.0,73,0.00,,---,0.00,VWS V14.01,2013-02-09 03:37:00,
2013-02-08 22:42:00,30.2,22.9,29.93,NE,50,4.0,4.0,74,0.00,,---,0.00,VWS V14.01,2013-02-09 03:42:00,
2013-02-08 22:47:00,30.2,22.9,29.93,NNE,26,6.0,6.0,74,0.00,,---,0.00,VWS V14.01,2013-02-09 03:47:00,
2013-02-08 22:52:00,30.1,22.5,29.93,ENE,57,0.0,6.0,73,0.00,,---,0.00,VWS V14.01,2013-02-09 03:52:00,
2013-02-08 22:57:00,30.1,22.5,29.94,NE,53,0.0,2.0,73,0.00,,---,0.00,VWS V14.01,2013-02-09 03:57:00,
2013-02-08 23:02:00,30.1,23.1,29.94,NE,53,3.0,3.0,75,0.00,,---,0.00,VWS V14.01,2013-02-09 04:02:00,
2013-02-08 23:07:00,30.0,22.4,29.93,NW,311,4.0,10.0,73,0.00,,---,0.00,VWS V14.01,2013-02-09 04:07:00,
2013-02-08 23:12:00,30.0,22.7,29.93,WNW,301,2.0,2.0,74,0.00,,---,0.00,VWS V14.01,2013-02-09 04:12:00,
2013-02-08 23:18:00,29.9,22.6,29.93,WSW,256,1.0,5.0,74,0.00,,---,0.00,VWS V14.01,2013-02-09 04:18:00,
2013-02-08 23:23:00,29.8,22.5,29.93,NE,44,3.0,3.0,74,0.00,,---,0.00,VWS V14.01,2013-02-09 04:23:00,
2013-02-08 23:28:00,29.7,22.8,29.92,NNW,347,1.0,5.0,75,0.00,,---,0.00,VWS V14.01,2013-02-09 04:28:00,
2013-02-08 23:33:00,29.6,22.7,29.92,NNE,32,5.0,5.0,75,0.00,,---,0.00,VWS V14.01,2013-02-09 04:33:00,
2013-02-08 23:38:00,29.6,22.4,29.92,North,8,2.0,3.0,74,0.00,,---,0.00,VWS V14.01,2013-02-09 04:38:00,
2013-02-08 23:43:00,29.5,22.9,29.92,WSW,256,1.0,2.0,76,0.00,,---,0.00,VWS V14.01,2013-02-09 04:43:00,
2013-02-08 23:48:00,29.4,22.5,29.92,NW,318,1.0,6.0,75,0.00,,---,0.00,VWS V14.01,2013-02-09 04:48:00,
2013-02-08 23:53:00,29.3,22.7,29.93,ESE,117,3.0,4.0,76,0.00,,---,0.00,VWS V14.01,2013-02-09 04:53:00,
2013-02-08 23:58:00,29.2,22.9,29.93,SE,133,1.0,5.0,77,0.00,,---,0.00,VWS V14.01,2013-02-09 04:58:00,